sensor_id;sensor_type;location;lat;lon;timestamp;temperature;humidity
24436;DHT22;12616;52.470;13.436;2023-03-23T00:01:22;11.90;1.00
24436;DHT22;12616;52.470;13.436;2023-03-23T00:03:53;11.90;1.00
24436;DHT22;12616;52.470;13.436;2023-03-23T00:06:23;11.90;99.90
24436;DHT22;12616;52.470;13.436;2023-03-23T00:08:51;11.90;1.00
24436;DHT22;12616;52.470;13.436;2023-03-23T00:11:21;11.90;99.90
24436;DHT22;12616;52.470;13.436;2023-03-23T00:13:50;11.90;99.90
24436;DHT22;12616;52.470;13.436;2023-03-23T00:16:18;11.60;1.00
24436;DHT22;12616;52.470;13.436;2023-03-23T00:18:46;11.80;99.90
24436;DHT22;12616;52.470;13.436;2023-03-23T00:21:15;11.80;99.90
24436;DHT22;12616;52.470;13.436;2023-03-23T00:23:42;11.80;99.90
24436;DHT22;12616;52.470;13.436;2023-03-23T00:26:11;11.70;99.90
24436;DHT22;12616;52.470;13.436;2023-03-23T00:28:39;11.80;99.90
24436;DHT22;12616;52.470;13.436;2023-03-23T00:31:07;11.70;99.90
24436;DHT22;12616;52.470;13.436;2023-03-23T00:33:36;11.70;99.90
24436;DHT22;12616;52.470;13.436;2023-03-23T00:36:07;11.70;99.90
24436;DHT22;12616;52.470;13.436;2023-03-23T00:38:35;11.70;99.90
24436;DHT22;12616;52.470;13.436;2023-03-23T00:41:03;11.70;99.90
24436;DHT22;12616;52.470;13.436;2023-03-23T00:43:30;11.70;99.90
24436;DHT22;12616;52.470;13.436;2023-03-23T00:45:58;11.70;99.90
24436;DHT22;12616;52.470;13.436;2023-03-23T00:48:27;11.60;99.90
24436;DHT22;12616;52.470;13.436;2023-03-23T00:50:55;11.60;99.90
24436;DHT22;12616;52.470;13.436;2023-03-23T00:53:22;11.60;99.90
24436;DHT22;12616;52.470;13.436;2023-03-23T00:55:50;11.60;99.90
24436;DHT22;12616;52.470;13.436;2023-03-23T00:58:16;11.30;99.90
24436;DHT22;12616;52.470;13.436;2023-03-23T01:00:43;11.60;99.90
24436;DHT22;12616;52.470;13.436;2023-03-23T01:03:12;11.50;99.90
24436;DHT22;12616;52.470;13.436;2023-03-23T01:05:44;11.50;99.90
24436;DHT22;12616;52.470;13.436;2023-03-23T01:08:13;11.50;99.90
24436;DHT22;12616;52.470;13.436;2023-03-23T01:10:40;11.50;99.90
24436;DHT22;12616;52.470;13.436;2023-03-23T01:13:07;11.50;99.90
24436;DHT22;12616;52.470;13.436;2023-03-23T01:15:34;11.30;99.90
24436;DHT22;12616;52.470;13.436;2023-03-23T01:18:02;11.40;99.90
24436;DHT22;12616;52.470;13.436;2023-03-23T01:20:30;11.40;1.00
24436;DHT22;12616;52.470;13.436;2023-03-23T01:22:58;11.40;1.00
24436;DHT22;12616;52.470;13.436;2023-03-23T01:25:26;11.40;99.90
24436;DHT22;12616;52.470;13.436;2023-03-23T01:27:54;11.30;99.90
24436;DHT22;12616;52.470;13.436;2023-03-23T01:30:21;11.30;99.90
24436;DHT22;12616;52.470;13.436;2023-03-23T01:32:48;11.20;99.90
24436;DHT22;12616;52.470;13.436;2023-03-23T01:35:16;11.20;1.00
24436;DHT22;12616;52.470;13.436;2023-03-23T01:37:44;11.20;1.00
24436;DHT22;12616;52.470;13.436;2023-03-23T01:40:14;11.20;1.00
24436;DHT22;12616;52.470;13.436;2023-03-23T01:42:41;11.10;25.20
24436;DHT22;12616;52.470;13.436;2023-03-23T01:45:28;11.20;1.00
24436;DHT22;12616;52.470;13.436;2023-03-23T01:47:59;11.20;1.00
24436;DHT22;12616;52.470;13.436;2023-03-23T01:50:31;11.10;1.00
24436;DHT22;12616;52.470;13.436;2023-03-23T01:53:05;11.10;1.00
24436;DHT22;12616;52.470;13.436;2023-03-23T01:55:34;10.70;1.00
24436;DHT22;12616;52.470;13.436;2023-03-23T01:58:05;11.10;1.00
24436;DHT22;12616;52.470;13.436;2023-03-23T02:00:32;11.20;1.00
24436;DHT22;12616;52.470;13.436;2023-03-23T02:03:00;11.20;1.00
24436;DHT22;12616;52.470;13.436;2023-03-23T02:05:30;11.20;1.00
24436;DHT22;12616;52.470;13.436;2023-03-23T02:08:02;11.20;1.00
24436;DHT22;12616;52.470;13.436;2023-03-23T02:10:31;11.20;99.90
24436;DHT22;12616;52.470;13.436;2023-03-23T02:13:00;11.20;99.90
24436;DHT22;12616;52.470;13.436;2023-03-23T02:15:35;11.20;99.90
24436;DHT22;12616;52.470;13.436;2023-03-23T02:18:09;11.20;99.90
24436;DHT22;12616;52.470;13.436;2023-03-23T02:24:05;11.20;99.90
24436;DHT22;12616;52.470;13.436;2023-03-23T02:26:47;11.20;99.90
24436;DHT22;12616;52.470;13.436;2023-03-23T02:29:42;11.20;99.90
24436;DHT22;12616;52.470;13.436;2023-03-23T02:32:26;11.30;99.90
24436;DHT22;12616;52.470;13.436;2023-03-23T02:35:06;11.30;99.90
24436;DHT22;12616;52.470;13.436;2023-03-23T02:37:39;11.30;76.80
24436;DHT22;12616;52.470;13.436;2023-03-23T02:40:14;12.00;99.90
24436;DHT22;12616;52.470;13.436;2023-03-23T02:42:47;11.40;1.00
24436;DHT22;12616;52.470;13.436;2023-03-23T02:45:16;11.40;1.00
24436;DHT22;12616;52.470;13.436;2023-03-23T02:47:44;11.40;93.00
24436;DHT22;12616;52.470;13.436;2023-03-23T02:50:15;11.40;1.00
24436;DHT22;12616;52.470;13.436;2023-03-23T02:52:45;11.40;99.90
24436;DHT22;12616;52.470;13.436;2023-03-23T02:55:13;11.40;99.90
24436;DHT22;12616;52.470;13.436;2023-03-23T02:57:41;11.30;1.00
24436;DHT22;12616;52.470;13.436;2023-03-23T03:00:13;11.30;1.00
24436;DHT22;12616;52.470;13.436;2023-03-23T03:02:42;11.30;99.90
24436;DHT22;12616;52.470;13.436;2023-03-23T03:05:17;11.20;99.90
24436;DHT22;12616;52.470;13.436;2023-03-23T03:08:05;11.30;99.90
24436;DHT22;12616;52.470;13.436;2023-03-23T03:10:40;11.30;99.90
24436;DHT22;12616;52.470;13.436;2023-03-23T03:13:13;11.30;99.90
24436;DHT22;12616;52.470;13.436;2023-03-23T03:15:44;11.80;99.90
24436;DHT22;12616;52.470;13.436;2023-03-23T03:18:16;11.30;99.90
24436;DHT22;12616;52.470;13.436;2023-03-23T03:20:49;11.40;99.90
24436;DHT22;12616;52.470;13.436;2023-03-23T03:23:17;11.40;99.90
24436;DHT22;12616;52.470;13.436;2023-03-23T03:25:46;11.40;86.20
24436;DHT22;12616;52.470;13.436;2023-03-23T03:28:16;11.40;20.40
24436;DHT22;12616;52.470;13.436;2023-03-23T03:30:47;11.40;1.00
24436;DHT22;12616;52.470;13.436;2023-03-23T03:33:17;11.40;99.90
24436;DHT22;12616;52.470;13.436;2023-03-23T03:35:48;11.40;99.90
24436;DHT22;12616;52.470;13.436;2023-03-23T03:38:15;11.40;99.90
24436;DHT22;12616;52.470;13.436;2023-03-23T03:40:42;11.40;99.90
24436;DHT22;12616;52.470;13.436;2023-03-23T03:43:08;11.40;99.20
24436;DHT22;12616;52.470;13.436;2023-03-23T03:45:35;11.70;99.90
24436;DHT22;12616;52.470;13.436;2023-03-23T03:48:02;11.50;99.90
24436;DHT22;12616;52.470;13.436;2023-03-23T03:50:29;11.50;1.00
24436;DHT22;12616;52.470;13.436;2023-03-23T03:52:57;11.50;99.90
24436;DHT22;12616;52.470;13.436;2023-03-23T03:55:24;11.30;99.90
24436;DHT22;12616;52.470;13.436;2023-03-23T03:57:53;11.40;27.80
24436;DHT22;12616;52.470;13.436;2023-03-23T04:00:21;11.40;99.90
24436;DHT22;12616;52.470;13.436;2023-03-23T04:02:50;11.30;99.90
24436;DHT22;12616;52.470;13.436;2023-03-23T04:05:19;11.30;99.90
24436;DHT22;12616;52.470;13.436;2023-03-23T04:07:47;11.30;1.00
24436;DHT22;12616;52.470;13.436;2023-03-23T04:10:19;11.30;99.90
24436;DHT22;12616;52.470;13.436;2023-03-23T04:12:47;11.30;60.00
24436;DHT22;12616;52.470;13.436;2023-03-23T04:15:14;11.30;99.90
24436;DHT22;12616;52.470;13.436;2023-03-23T04:17:41;11.30;99.90
24436;DHT22;12616;52.470;13.436;2023-03-23T04:20:09;11.30;99.90
24436;DHT22;12616;52.470;13.436;2023-03-23T04:22:41;11.30;33.40
24436;DHT22;12616;52.470;13.436;2023-03-23T04:25:11;11.30;99.90
24436;DHT22;12616;52.470;13.436;2023-03-23T04:27:40;11.30;99.90
24436;DHT22;12616;52.470;13.436;2023-03-23T04:30:10;11.30;99.90
24436;DHT22;12616;52.470;13.436;2023-03-23T04:32:38;11.30;99.90
24436;DHT22;12616;52.470;13.436;2023-03-23T04:35:09;11.30;99.90
24436;DHT22;12616;52.470;13.436;2023-03-23T04:37:37;11.30;1.00
24436;DHT22;12616;52.470;13.436;2023-03-23T04:40:05;11.30;1.00
24436;DHT22;12616;52.470;13.436;2023-03-23T04:42:37;11.30;1.00
24436;DHT22;12616;52.470;13.436;2023-03-23T04:45:08;11.20;1.00
24436;DHT22;12616;52.470;13.436;2023-03-23T04:47:36;11.30;99.90
24436;DHT22;12616;52.470;13.436;2023-03-23T04:50:08;11.20;1.00
24436;DHT22;12616;52.470;13.436;2023-03-23T04:52:47;11.20;5.90
24436;DHT22;12616;52.470;13.436;2023-03-23T04:55:14;11.10;99.90
24436;DHT22;12616;52.470;13.436;2023-03-23T04:57:41;11.20;11.10
24436;DHT22;12616;52.470;13.436;2023-03-23T05:00:11;11.20;1.00
24436;DHT22;12616;52.470;13.436;2023-03-23T05:02:40;11.30;1.00
24436;DHT22;12616;52.470;13.436;2023-03-23T05:05:07;11.20;99.90
24436;DHT22;12616;52.470;13.436;2023-03-23T05:07:36;11.30;1.00
24436;DHT22;12616;52.470;13.436;2023-03-23T05:10:04;11.30;1.00
24436;DHT22;12616;52.470;13.436;2023-03-23T05:12:31;11.30;99.90
24436;DHT22;12616;52.470;13.436;2023-03-23T05:14:58;11.30;99.90
24436;DHT22;12616;52.470;13.436;2023-03-23T05:17:27;11.20;1.00
24436;DHT22;12616;52.470;13.436;2023-03-23T05:19:55;11.10;1.00
24436;DHT22;12616;52.470;13.436;2023-03-23T05:22:22;11.10;15.30
24436;DHT22;12616;52.470;13.436;2023-03-23T05:24:49;11.10;1.00
24436;DHT22;12616;52.470;13.436;2023-03-23T05:27:17;11.10;20.70
24436;DHT22;12616;52.470;13.436;2023-03-23T05:29:45;11.10;1.00
24436;DHT22;12616;52.470;13.436;2023-03-23T05:32:14;11.00;1.00
24436;DHT22;12616;52.470;13.436;2023-03-23T05:34:42;11.00;1.00
24436;DHT22;12616;52.470;13.436;2023-03-23T05:37:10;11.10;1.00
24436;DHT22;12616;52.470;13.436;2023-03-23T05:39:37;11.10;1.00
24436;DHT22;12616;52.470;13.436;2023-03-23T05:42:05;11.10;1.00
24436;DHT22;12616;52.470;13.436;2023-03-23T05:44:33;11.10;1.00
24436;DHT22;12616;52.470;13.436;2023-03-23T05:47:00;11.10;1.00
24436;DHT22;12616;52.470;13.436;2023-03-23T05:49:27;11.10;1.00
24436;DHT22;12616;52.470;13.436;2023-03-23T05:51:55;11.10;99.90
24436;DHT22;12616;52.470;13.436;2023-03-23T05:54:22;11.00;99.90
24436;DHT22;12616;52.470;13.436;2023-03-23T05:56:49;11.00;99.90
24436;DHT22;12616;52.470;13.436;2023-03-23T05:59:16;11.00;99.90
24436;DHT22;12616;52.470;13.436;2023-03-23T06:01:43;11.00;99.90
24436;DHT22;12616;52.470;13.436;2023-03-23T06:04:10;10.90;1.00
24436;DHT22;12616;52.470;13.436;2023-03-23T06:06:37;10.90;1.00
24436;DHT22;12616;52.470;13.436;2023-03-23T06:09:05;10.90;1.00
24436;DHT22;12616;52.470;13.436;2023-03-23T06:11:32;10.80;1.00
24436;DHT22;12616;52.470;13.436;2023-03-23T06:13:59;10.80;1.00
24436;DHT22;12616;52.470;13.436;2023-03-23T06:16:26;11.00;56.20
24436;DHT22;12616;52.470;13.436;2023-03-23T06:18:53;10.50;99.90
24436;DHT22;12616;52.470;13.436;2023-03-23T06:21:22;10.60;99.90
24436;DHT22;12616;52.470;13.436;2023-03-23T06:23:49;10.60;40.00
24436;DHT22;12616;52.470;13.436;2023-03-23T06:26:19;10.70;55.20
24436;DHT22;12616;52.470;13.436;2023-03-23T06:28:46;10.80;99.90
24436;DHT22;12616;52.470;13.436;2023-03-23T06:31:14;10.60;68.30
24436;DHT22;12616;52.470;13.436;2023-03-23T06:33:45;10.60;94.50
24436;DHT22;12616;52.470;13.436;2023-03-23T06:36:13;10.60;99.90
24436;DHT22;12616;52.470;13.436;2023-03-23T06:38:39;10.60;99.90
24436;DHT22;12616;52.470;13.436;2023-03-23T06:41:06;10.60;99.90
24436;DHT22;12616;52.470;13.436;2023-03-23T06:43:35;10.60;99.90
24436;DHT22;12616;52.470;13.436;2023-03-23T06:46:04;10.60;99.90
24436;DHT22;12616;52.470;13.436;2023-03-23T06:48:32;10.70;99.90
24436;DHT22;12616;52.470;13.436;2023-03-23T06:50:59;10.70;99.90
24436;DHT22;12616;52.470;13.436;2023-03-23T06:53:26;10.70;99.90
24436;DHT22;12616;52.470;13.436;2023-03-23T06:55:52;10.70;99.90
24436;DHT22;12616;52.470;13.436;2023-03-23T06:58:19;10.70;99.90
24436;DHT22;12616;52.470;13.436;2023-03-23T07:00:53;10.70;99.90
24436;DHT22;12616;52.470;13.436;2023-03-23T07:03:20;10.40;99.90
24436;DHT22;12616;52.470;13.436;2023-03-23T07:05:47;10.70;99.90
24436;DHT22;12616;52.470;13.436;2023-03-23T07:08:14;10.70;99.90
24436;DHT22;12616;52.470;13.436;2023-03-23T07:10:41;10.80;99.90
24436;DHT22;12616;52.470;13.436;2023-03-23T07:13:08;10.70;99.90
24436;DHT22;12616;52.470;13.436;2023-03-23T07:15:34;10.70;99.90
24436;DHT22;12616;52.470;13.436;2023-03-23T07:18:04;10.70;99.90
24436;DHT22;12616;52.470;13.436;2023-03-23T07:20:31;10.70;99.90
24436;DHT22;12616;52.470;13.436;2023-03-23T07:22:58;10.70;99.90
24436;DHT22;12616;52.470;13.436;2023-03-23T07:25:27;10.90;99.90
24436;DHT22;12616;52.470;13.436;2023-03-23T07:27:54;10.70;99.90
24436;DHT22;12616;52.470;13.436;2023-03-23T07:30:21;10.70;99.90
24436;DHT22;12616;52.470;13.436;2023-03-23T07:32:48;10.70;99.90
24436;DHT22;12616;52.470;13.436;2023-03-23T07:35:16;10.70;99.90
24436;DHT22;12616;52.470;13.436;2023-03-23T07:37:43;10.70;99.90
24436;DHT22;12616;52.470;13.436;2023-03-23T07:40:11;10.50;1.00
24436;DHT22;12616;52.470;13.436;2023-03-23T07:42:41;10.70;99.90
24436;DHT22;12616;52.470;13.436;2023-03-23T07:45:10;10.70;99.90
24436;DHT22;12616;52.470;13.436;2023-03-23T07:47:38;10.70;1.00
24436;DHT22;12616;52.470;13.436;2023-03-23T07:50:06;10.80;1.00
24436;DHT22;12616;52.470;13.436;2023-03-23T07:52:35;10.80;1.00
24436;DHT22;12616;52.470;13.436;2023-03-23T07:55:04;10.80;1.00
24436;DHT22;12616;52.470;13.436;2023-03-23T07:57:31;11.00;1.00
24436;DHT22;12616;52.470;13.436;2023-03-23T07:59:59;11.30;1.00
24436;DHT22;12616;52.470;13.436;2023-03-23T08:02:26;11.00;1.00
24436;DHT22;12616;52.470;13.436;2023-03-23T08:04:53;11.00;1.00
24436;DHT22;12616;52.470;13.436;2023-03-23T08:07:22;11.00;1.00
24436;DHT22;12616;52.470;13.436;2023-03-23T08:09:50;11.10;1.00
24436;DHT22;12616;52.470;13.436;2023-03-23T08:12:17;11.20;1.00
24436;DHT22;12616;52.470;13.436;2023-03-23T08:14:44;11.00;99.90
24436;DHT22;12616;52.470;13.436;2023-03-23T08:17:13;11.10;99.90
24436;DHT22;12616;52.470;13.436;2023-03-23T08:19:41;11.20;99.90
24436;DHT22;12616;52.470;13.436;2023-03-23T08:22:08;11.20;99.90
24436;DHT22;12616;52.470;13.436;2023-03-23T08:24:35;11.20;99.90
24436;DHT22;12616;52.470;13.436;2023-03-23T08:27:04;11.20;99.90
24436;DHT22;12616;52.470;13.436;2023-03-23T08:29:32;11.20;99.90
24436;DHT22;12616;52.470;13.436;2023-03-23T08:31:59;11.20;99.90
24436;DHT22;12616;52.470;13.436;2023-03-23T08:34:28;11.20;99.90
24436;DHT22;12616;52.470;13.436;2023-03-23T08:36:56;11.30;99.90
24436;DHT22;12616;52.470;13.436;2023-03-23T08:39:23;11.30;99.90
24436;DHT22;12616;52.470;13.436;2023-03-23T08:41:50;11.30;99.90
24436;DHT22;12616;52.470;13.436;2023-03-23T08:44:19;11.40;99.90
24436;DHT22;12616;52.470;13.436;2023-03-23T08:46:46;11.30;99.90
24436;DHT22;12616;52.470;13.436;2023-03-23T08:49:13;11.40;99.90
24436;DHT22;12616;52.470;13.436;2023-03-23T08:51:39;11.40;99.90
24436;DHT22;12616;52.470;13.436;2023-03-23T08:54:07;11.50;99.90
24436;DHT22;12616;52.470;13.436;2023-03-23T08:56:34;11.60;99.90
24436;DHT22;12616;52.470;13.436;2023-03-23T08:59:01;12.10;99.90
24436;DHT22;12616;52.470;13.436;2023-03-23T09:01:30;11.80;99.90
24436;DHT22;12616;52.470;13.436;2023-03-23T09:03:57;11.80;99.90
24436;DHT22;12616;52.470;13.436;2023-03-23T09:06:25;11.70;99.90
24436;DHT22;12616;52.470;13.436;2023-03-23T09:08:53;11.80;99.90
24436;DHT22;12616;52.470;13.436;2023-03-23T09:11:21;11.90;99.90
24436;DHT22;12616;52.470;13.436;2023-03-23T09:13:48;12.10;99.90
24436;DHT22;12616;52.470;13.436;2023-03-23T09:16:15;12.20;48.20
24436;DHT22;12616;52.470;13.436;2023-03-23T09:18:43;12.20;24.30
24436;DHT22;12616;52.470;13.436;2023-03-23T09:21:10;12.10;1.00
24436;DHT22;12616;52.470;13.436;2023-03-23T09:23:38;12.10;1.00
24436;DHT22;12616;52.470;13.436;2023-03-23T09:26:07;12.10;1.00
24436;DHT22;12616;52.470;13.436;2023-03-23T09:28:34;12.20;1.00
24436;DHT22;12616;52.470;13.436;2023-03-23T09:31:00;12.30;1.00
24436;DHT22;12616;52.470;13.436;2023-03-23T09:33:27;12.30;1.00
24436;DHT22;12616;52.470;13.436;2023-03-23T09:36:00;12.40;1.00
24436;DHT22;12616;52.470;13.436;2023-03-23T09:38:30;12.40;1.00
24436;DHT22;12616;52.470;13.436;2023-03-23T09:41:03;12.50;1.00
24436;DHT22;12616;52.470;13.436;2023-03-23T09:43:44;12.40;1.00
24436;DHT22;12616;52.470;13.436;2023-03-23T09:46:27;12.50;1.00
24436;DHT22;12616;52.470;13.436;2023-03-23T09:48:59;12.70;1.00
24436;DHT22;12616;52.470;13.436;2023-03-23T09:51:40;12.70;1.00
24436;DHT22;12616;52.470;13.436;2023-03-23T09:54:13;12.80;99.90
24436;DHT22;12616;52.470;13.436;2023-03-23T09:56:41;12.90;99.90
24436;DHT22;12616;52.470;13.436;2023-03-23T09:59:14;13.10;99.90
24436;DHT22;12616;52.470;13.436;2023-03-23T10:01:45;13.20;99.90
24436;DHT22;12616;52.470;13.436;2023-03-23T10:04:19;13.20;99.90
24436;DHT22;12616;52.470;13.436;2023-03-23T10:06:51;13.30;99.90
24436;DHT22;12616;52.470;13.436;2023-03-23T10:09:19;13.40;99.90
24436;DHT22;12616;52.470;13.436;2023-03-23T10:11:54;13.20;99.90
24436;DHT22;12616;52.470;13.436;2023-03-23T10:17:23;13.40;1.00
24436;DHT22;12616;52.470;13.436;2023-03-23T10:19:57;13.50;1.00
24436;DHT22;12616;52.470;13.436;2023-03-23T10:22:31;13.50;99.90
24436;DHT22;12616;52.470;13.436;2023-03-23T10:25:05;13.50;99.90
24436;DHT22;12616;52.470;13.436;2023-03-23T10:27:38;13.60;99.90
24436;DHT22;12616;52.470;13.436;2023-03-23T10:30:16;13.70;5.20
24436;DHT22;12616;52.470;13.436;2023-03-23T10:32:47;13.80;69.70
24436;DHT22;12616;52.470;13.436;2023-03-23T10:35:18;13.80;1.00
24436;DHT22;12616;52.470;13.436;2023-03-23T10:37:51;13.90;1.00
24436;DHT22;12616;52.470;13.436;2023-03-23T10:40:22;13.90;80.80
24436;DHT22;12616;52.470;13.436;2023-03-23T10:42:50;13.90;99.90
24436;DHT22;12616;52.470;13.436;2023-03-23T10:45:22;14.00;1.00
24436;DHT22;12616;52.470;13.436;2023-03-23T10:47:55;14.00;1.00
24436;DHT22;12616;52.470;13.436;2023-03-23T10:50:26;14.10;99.90
24436;DHT22;12616;52.470;13.436;2023-03-23T10:52:57;14.20;1.00
24436;DHT22;12616;52.470;13.436;2023-03-23T10:55:36;13.70;99.90
24436;DHT22;12616;52.470;13.436;2023-03-23T10:58:05;14.00;1.00
24436;DHT22;12616;52.470;13.436;2023-03-23T11:00:32;14.10;52.10
24436;DHT22;12616;52.470;13.436;2023-03-23T11:03:02;14.20;92.20
24436;DHT22;12616;52.470;13.436;2023-03-23T11:05:36;14.20;80.00
24436;DHT22;12616;52.470;13.436;2023-03-23T11:08:11;14.10;1.00
24436;DHT22;12616;52.470;13.436;2023-03-23T11:10:42;14.10;1.00
24436;DHT22;12616;52.470;13.436;2023-03-23T11:13:15;14.10;1.00
24436;DHT22;12616;52.470;13.436;2023-03-23T11:15:44;14.40;12.10
24436;DHT22;12616;52.470;13.436;2023-03-23T11:18:18;14.20;1.00
24436;DHT22;12616;52.470;13.436;2023-03-23T11:20:47;14.30;1.00
24436;DHT22;12616;52.470;13.436;2023-03-23T11:23:21;14.20;1.00
24436;DHT22;12616;52.470;13.436;2023-03-23T11:25:56;14.40;1.00
24436;DHT22;12616;52.470;13.436;2023-03-23T11:28:28;14.30;1.00
24436;DHT22;12616;52.470;13.436;2023-03-23T11:30:58;14.60;1.00
24436;DHT22;12616;52.470;13.436;2023-03-23T11:33:29;14.50;1.00
24436;DHT22;12616;52.470;13.436;2023-03-23T11:35:57;14.50;99.90
24436;DHT22;12616;52.470;13.436;2023-03-23T11:38:25;14.60;99.90
24436;DHT22;12616;52.470;13.436;2023-03-23T11:40:54;14.60;99.90
24436;DHT22;12616;52.470;13.436;2023-03-23T11:43:22;14.60;99.90
24436;DHT22;12616;52.470;13.436;2023-03-23T11:45:58;14.70;99.90
24436;DHT22;12616;52.470;13.436;2023-03-23T11:48:32;14.90;99.90
24436;DHT22;12616;52.470;13.436;2023-03-23T11:51:04;14.90;99.90
24436;DHT22;12616;52.470;13.436;2023-03-23T11:53:42;14.80;99.90
24436;DHT22;12616;52.470;13.436;2023-03-23T11:56:17;14.90;99.90
24436;DHT22;12616;52.470;13.436;2023-03-23T11:58:45;15.10;99.90
24436;DHT22;12616;52.470;13.436;2023-03-23T12:01:21;15.10;99.90
24436;DHT22;12616;52.470;13.436;2023-03-23T12:04:00;15.10;99.90
24436;DHT22;12616;52.470;13.436;2023-03-23T12:06:36;15.20;99.90
24436;DHT22;12616;52.470;13.436;2023-03-23T12:09:20;15.10;99.90
24436;DHT22;12616;52.470;13.436;2023-03-23T12:11:58;15.30;99.90
24436;DHT22;12616;52.470;13.436;2023-03-23T12:14:33;15.10;99.90
24436;DHT22;12616;52.470;13.436;2023-03-23T12:17:17;15.10;99.90
24436;DHT22;12616;52.470;13.436;2023-03-23T12:19:51;15.30;99.90
24436;DHT22;12616;52.470;13.436;2023-03-23T12:22:33;15.10;99.90
24436;DHT22;12616;52.470;13.436;2023-03-23T12:25:30;15.10;99.90
24436;DHT22;12616;52.470;13.436;2023-03-23T12:28:06;15.20;74.00
24436;DHT22;12616;52.470;13.436;2023-03-23T12:30:42;15.20;83.40
24436;DHT22;12616;52.470;13.436;2023-03-23T12:33:21;14.90;99.90
24436;DHT22;12616;52.470;13.436;2023-03-23T12:35:59;15.30;59.80
24436;DHT22;12616;52.470;13.436;2023-03-23T12:38:45;15.20;21.50
24436;DHT22;12616;52.470;13.436;2023-03-23T12:41:19;15.20;35.10
24436;DHT22;12616;52.470;13.436;2023-03-23T12:43:51;15.20;20.20
24436;DHT22;12616;52.470;13.436;2023-03-23T12:46:36;15.20;18.80
24436;DHT22;12616;52.470;13.436;2023-03-23T12:49:07;15.30;53.10
24436;DHT22;12616;52.470;13.436;2023-03-23T12:51:41;15.30;28.00
24436;DHT22;12616;52.470;13.436;2023-03-23T12:54:12;15.40;20.80
24436;DHT22;12616;52.470;13.436;2023-03-23T12:56:48;15.40;14.10
24436;DHT22;12616;52.470;13.436;2023-03-23T12:59:22;15.70;99.90
24436;DHT22;12616;52.470;13.436;2023-03-23T13:01:53;15.40;1.00
24436;DHT22;12616;52.470;13.436;2023-03-23T13:04:24;15.50;36.80
24436;DHT22;12616;52.470;13.436;2023-03-23T13:06:52;15.50;1.00
24436;DHT22;12616;52.470;13.436;2023-03-23T13:09:24;15.70;1.00
24436;DHT22;12616;52.470;13.436;2023-03-23T13:11:55;15.70;1.00
24436;DHT22;12616;52.470;13.436;2023-03-23T13:14:32;16.00;1.00
24436;DHT22;12616;52.470;13.436;2023-03-23T13:17:10;15.90;1.00
24436;DHT22;12616;52.470;13.436;2023-03-23T13:19:59;15.90;1.00
24436;DHT22;12616;52.470;13.436;2023-03-23T13:22:35;15.90;1.00
24436;DHT22;12616;52.470;13.436;2023-03-23T13:25:07;16.00;1.00
24436;DHT22;12616;52.470;13.436;2023-03-23T13:27:36;15.90;1.00
24436;DHT22;12616;52.470;13.436;2023-03-23T13:30:04;15.90;1.00
24436;DHT22;12616;52.470;13.436;2023-03-23T13:32:38;16.00;1.00
24436;DHT22;12616;52.470;13.436;2023-03-23T13:35:12;16.00;1.00
24436;DHT22;12616;52.470;13.436;2023-03-23T13:37:43;16.00;1.00
24436;DHT22;12616;52.470;13.436;2023-03-23T13:40:20;16.20;1.00
24436;DHT22;12616;52.470;13.436;2023-03-23T13:42:53;16.10;1.00
24436;DHT22;12616;52.470;13.436;2023-03-23T13:45:22;15.90;1.00
24436;DHT22;12616;52.470;13.436;2023-03-23T13:48:03;15.70;1.00
24436;DHT22;12616;52.470;13.436;2023-03-23T13:50:31;15.70;1.00
24436;DHT22;12616;52.470;13.436;2023-03-23T13:53:00;15.90;1.00
24436;DHT22;12616;52.470;13.436;2023-03-23T13:55:40;16.10;1.00
24436;DHT22;12616;52.470;13.436;2023-03-23T13:58:22;16.10;1.00
24436;DHT22;12616;52.470;13.436;2023-03-23T14:01:03;16.10;1.00
24436;DHT22;12616;52.470;13.436;2023-03-23T14:03:38;16.00;1.00
24436;DHT22;12616;52.470;13.436;2023-03-23T14:06:10;16.00;1.00
24436;DHT22;12616;52.470;13.436;2023-03-23T14:08:41;16.20;1.00
24436;DHT22;12616;52.470;13.436;2023-03-23T14:11:15;16.30;1.00
24436;DHT22;12616;52.470;13.436;2023-03-23T14:13:47;16.30;1.00
24436;DHT22;12616;52.470;13.436;2023-03-23T14:16:20;16.30;1.00
24436;DHT22;12616;52.470;13.436;2023-03-23T14:18:53;16.40;1.00
24436;DHT22;12616;52.470;13.436;2023-03-23T14:21:33;16.40;1.00
24436;DHT22;12616;52.470;13.436;2023-03-23T14:24:02;16.30;1.00
24436;DHT22;12616;52.470;13.436;2023-03-23T14:26:33;16.10;1.00
24436;DHT22;12616;52.470;13.436;2023-03-23T14:29:03;15.90;1.00
24436;DHT22;12616;52.470;13.436;2023-03-23T14:31:31;15.90;1.00
24436;DHT22;12616;52.470;13.436;2023-03-23T14:34:02;15.70;1.00
24436;DHT22;12616;52.470;13.436;2023-03-23T14:36:32;15.70;1.00
24436;DHT22;12616;52.470;13.436;2023-03-23T14:39:04;15.70;1.00
24436;DHT22;12616;52.470;13.436;2023-03-23T14:41:34;15.70;1.00
24436;DHT22;12616;52.470;13.436;2023-03-23T14:44:06;15.60;1.00
24436;DHT22;12616;52.470;13.436;2023-03-23T14:46:34;15.60;1.00
24436;DHT22;12616;52.470;13.436;2023-03-23T14:49:04;15.60;1.00
24436;DHT22;12616;52.470;13.436;2023-03-23T14:51:31;15.50;1.00
24436;DHT22;12616;52.470;13.436;2023-03-23T14:53:59;15.40;1.00
24436;DHT22;12616;52.470;13.436;2023-03-23T14:56:34;15.30;94.00
24436;DHT22;12616;52.470;13.436;2023-03-23T14:59:05;15.00;99.90
24436;DHT22;12616;52.470;13.436;2023-03-23T15:01:36;14.80;1.00
24436;DHT22;12616;52.470;13.436;2023-03-23T15:04:06;14.60;1.00
24436;DHT22;12616;52.470;13.436;2023-03-23T15:06:36;14.40;72.60
24436;DHT22;12616;52.470;13.436;2023-03-23T15:09:09;14.40;1.00
24436;DHT22;12616;52.470;13.436;2023-03-23T15:11:39;14.50;99.90
24436;DHT22;12616;52.470;13.436;2023-03-23T15:14:14;14.60;92.30
24436;DHT22;12616;52.470;13.436;2023-03-23T15:16:46;14.60;1.00
24436;DHT22;12616;52.470;13.436;2023-03-23T15:19:18;14.70;99.90
24436;DHT22;12616;52.470;13.436;2023-03-23T15:21:48;14.80;99.90
24436;DHT22;12616;52.470;13.436;2023-03-23T15:24:26;15.00;99.90
24436;DHT22;12616;52.470;13.436;2023-03-23T15:26:54;15.20;99.90
24436;DHT22;12616;52.470;13.436;2023-03-23T15:29:30;15.30;99.90
24436;DHT22;12616;52.470;13.436;2023-03-23T15:31:57;15.30;99.90
24436;DHT22;12616;52.470;13.436;2023-03-23T15:34:29;15.30;25.50
24436;DHT22;12616;52.470;13.436;2023-03-23T15:36:58;15.40;1.00
24436;DHT22;12616;52.470;13.436;2023-03-23T15:39:26;15.40;1.00
24436;DHT22;12616;52.470;13.436;2023-03-23T15:41:55;15.20;1.00
24436;DHT22;12616;52.470;13.436;2023-03-23T15:44:28;15.60;1.00
24436;DHT22;12616;52.470;13.436;2023-03-23T15:47:13;15.50;1.00
24436;DHT22;12616;52.470;13.436;2023-03-23T15:49:41;15.50;1.00